createdAt,value
2022-08-12T00:02:54.855Z,3.70
2022-08-12T00:08:16.609Z,3.50
2022-08-12T00:13:37.035Z,3.40
2022-08-12T00:18:57.264Z,3.25
2022-08-12T00:24:19.882Z,2.80
2022-08-12T00:29:42.598Z,2.97
2022-08-12T00:35:08.956Z,3.55
2022-08-12T00:40:31.582Z,3.40
2022-08-12T00:45:53.594Z,3.95
2022-08-12T00:50:56.147Z,3.60
2022-08-12T00:56:00.682Z,3.80
2022-08-12T01:01:05.740Z,3.80
2022-08-12T01:06:27.174Z,3.25
2022-08-12T01:11:28.990Z,4.10
2022-08-12T01:16:30.793Z,4.35
2022-08-12T01:21:32.323Z,4.20
2022-08-12T01:26:35.031Z,3.92
2022-08-12T01:31:39.160Z,4.05
2022-08-12T01:36:45.959Z,3.78
2022-08-12T01:41:53.857Z,4.22
2022-08-12T01:47:05.722Z,4.03
2022-08-12T01:52:19.980Z,4.25
2022-08-12T01:57:59.618Z,4.32
2022-08-12T02:03:19.593Z,4.10
2022-08-12T02:08:56.842Z,4.03
2022-08-12T02:13:58.690Z,4.57
2022-08-12T02:19:22.503Z,5.22
2022-08-12T02:24:31.234Z,4.38
2022-08-12T02:29:33.607Z,4.78
2022-08-12T02:34:35.530Z,5.20
2022-08-12T02:39:40.766Z,5.30
2022-08-12T02:44:45.439Z,5.18
2022-08-12T02:49:55.265Z,5.68
2022-08-12T02:55:03.499Z,5.57
2022-08-12T03:00:07.818Z,5.47
2022-08-12T03:05:13.207Z,4.72
2022-08-12T03:10:26.028Z,5.90
2022-08-12T03:15:39.281Z,5.43
2022-08-12T03:20:50.903Z,6.82
2022-08-12T03:25:56.210Z,5.65
2022-08-12T03:31:09.262Z,5.97
2022-08-12T03:36:11.981Z,6.10
2022-08-12T03:41:35.505Z,5.82
2022-08-12T03:46:58.800Z,6.10
2022-08-12T03:52:23.053Z,5.63
2022-08-12T03:57:43.918Z,5.72
2022-08-12T04:03:01.783Z,5.97
2022-08-12T04:08:03.823Z,6.82
2022-08-12T04:13:19.530Z,6.18
2022-08-12T04:18:21.641Z,5.85
2022-08-12T04:23:24.441Z,6.50
2022-08-12T04:28:28.218Z,6.38
2022-08-12T04:33:30.068Z,6.80
2022-08-12T04:38:33.316Z,6.30
2022-08-12T04:44:01.114Z,6.82
2022-08-12T04:48:57.854Z,6.82
2022-08-12T04:54:03.045Z,6.32
2022-08-12T04:59:05.703Z,6.47
2022-08-12T05:04:09.301Z,5.97
2022-08-12T05:09:14.362Z,6.38
2022-08-12T05:14:16.757Z,6.97
2022-08-12T05:19:22.772Z,6.97
2022-08-12T05:24:24.551Z,6.20
2022-08-12T05:30:06.982Z,6.20
2022-08-12T05:34:51.775Z,5.95
2022-08-12T05:39:59.040Z,6.25
2022-08-12T05:45:02.284Z,5.60
2022-08-12T05:50:06.444Z,5.85
2022-08-12T05:55:08.220Z,5.40
2022-08-12T06:00:12.125Z,5.90
2022-08-12T06:05:14.027Z,6.55
2022-08-12T06:10:31.636Z,6.65
2022-08-12T06:15:37.906Z,6.20
2022-08-12T06:20:47.304Z,7.35
2022-08-12T06:25:48.954Z,6.18
2022-08-12T06:31:14.866Z,6.45
2022-08-12T06:36:20.944Z,6.07
2022-08-12T06:41:41.448Z,5.93
2022-08-12T06:47:03.060Z,5.40
2022-08-12T06:52:34.706Z,5.80
2022-08-12T06:58:08.248Z,6.15
2022-08-12T07:03:23.271Z,6.40
2022-08-12T07:08:29.001Z,6.22
2022-08-12T07:14:02.515Z,4.90
2022-08-12T07:19:11.945Z,5.32
2022-08-12T07:24:14.348Z,5.43
2022-08-12T07:29:16.441Z,5.47
2022-08-12T07:34:18.391Z,4.68
2022-08-12T07:39:20.311Z,4.20
2022-08-12T07:44:22.141Z,5.07
2022-08-12T07:49:24.760Z,5.28
2022-08-12T07:54:26.426Z,5.07
2022-08-12T07:59:28.436Z,5.25
2022-08-12T08:04:48.494Z,10.32
2022-08-12T08:09:50.474Z,8.88
2022-08-12T08:15:00.868Z,4.60
2022-08-12T08:20:04.433Z,4.80
2022-08-12T08:25:34.429Z,4.35
2022-08-12T08:30:30.456Z,4.53
2022-08-12T08:35:46.430Z,4.60
2022-08-12T08:41:07.456Z,3.90
2022-08-12T08:46:09.181Z,3.22
2022-08-12T08:51:10.747Z,3.60
2022-08-12T08:56:12.343Z,3.78
2022-08-12T09:01:21.656Z,3.60
2022-08-12T09:06:37.465Z,3.77
2022-08-12T09:12:10.584Z,3.15
2022-08-12T09:17:22.574Z,3.90
2022-08-12T09:22:28.443Z,3.67
2022-08-12T09:28:03.763Z,3.55
2022-08-12T09:33:04.947Z,4.18
2022-08-12T09:38:27.531Z,4.03
2022-08-12T09:43:53.796Z,4.03
2022-08-12T09:49:16.287Z,3.70
2022-08-12T09:54:33.900Z,3.92
2022-08-12T10:00:17.240Z,3.70
2022-08-12T10:05:01.741Z,3.50
2022-08-12T10:10:03.655Z,3.88
2022-08-12T10:15:06.934Z,4.40
2022-08-12T10:20:09.833Z,4.72
2022-08-12T10:26:18.358Z,3.60
2022-08-12T10:30:59.428Z,3.33
2022-08-12T10:36:02.026Z,4.30
2022-08-12T10:41:23.549Z,3.55
2022-08-12T10:46:49.289Z,3.50
2022-08-12T10:52:04.933Z,3.67
2022-08-12T10:57:18.361Z,3.40
2022-08-12T11:04:27.795Z,3.58
2022-08-12T11:08:33.731Z,3.60
2022-08-12T11:13:19.327Z,3.28
2022-08-12T11:18:40.986Z,3.72
2022-08-12T11:23:42.651Z,3.92
2022-08-12T11:28:44.283Z,3.63
2022-08-12T11:34:05.858Z,3.10
2022-08-12T11:44:46.703Z,3.58
2022-08-12T11:49:51.204Z,4.00
2022-08-12T11:54:54.286Z,3.28
2022-08-12T12:05:18.117Z,3.17
2022-08-12T12:10:20.615Z,3.58
2022-08-12T12:15:24.719Z,3.70
2022-08-12T12:20:30.390Z,3.60
2022-08-12T12:26:07.187Z,2.95
2022-08-12T12:30:57.120Z,3.00
2022-08-12T12:36:19.660Z,3.05
2022-08-12T12:41:22.719Z,3.28
2022-08-12T12:46:44.608Z,2.70
2022-08-12T12:51:58.113Z,3.35
2022-08-12T12:57:14.559Z,3.60
2022-08-12T13:02:31.774Z,3.22
2022-08-12T13:07:54.795Z,3.63
2022-08-12T13:14:07.309Z,3.22
2022-08-12T13:18:28.536Z,3.00
2022-08-12T13:23:37.109Z,3.08
2022-08-12T13:28:43.041Z,2.85
2022-08-12T13:34:33.583Z,3.05
2022-08-12T13:39:07.131Z,3.38
2022-08-12T13:44:10.492Z,3.80
2022-08-12T13:49:20.435Z,3.25
2022-08-12T13:54:35.249Z,3.25
2022-08-12T13:59:48.834Z,3.35
2022-08-12T14:04:57.139Z,3.45
2022-08-12T14:10:17.180Z,3.45
2022-08-12T14:15:19.547Z,3.42
2022-08-12T14:20:23.395Z,2.95
2022-08-12T14:25:28.539Z,3.28
2022-08-12T14:30:36.451Z,3.00
2022-08-12T14:35:44.944Z,2.85
2022-08-12T14:40:52.558Z,2.95
2022-08-12T14:45:56.506Z,3.53
2022-08-12T14:52:10.716Z,2.65
2022-08-12T15:01:45.292Z,3.38
2022-08-12T15:06:52.747Z,2.75
2022-08-12T15:12:03.224Z,2.55
2022-08-12T15:17:08.662Z,2.92
2022-08-12T15:22:37.028Z,2.85
2022-08-12T15:28:04.373Z,2.60
2022-08-12T15:32:56.130Z,2.30
2022-08-12T15:38:13.729Z,2.60
2022-08-12T15:43:51.458Z,7.93
2022-08-12T15:48:43.340Z,5.28
2022-08-12T15:54:30.799Z,4.22
2022-08-12T15:59:51.575Z,3.22
2022-08-12T16:04:51.484Z,3.15
2022-08-12T16:10:04.741Z,2.67
2022-08-12T16:15:11.026Z,2.80
2022-08-12T16:20:21.709Z,3.05
2022-08-12T16:26:00.158Z,2.75
2022-08-12T16:30:53.623Z,3.55
2022-08-12T16:35:55.606Z,3.03
2022-08-12T16:40:58.255Z,2.45
2022-08-12T16:46:31.253Z,2.70
2022-08-12T16:51:28.627Z,3.42
2022-08-12T16:56:37.187Z,3.22
2022-08-12T17:01:39.709Z,2.97
2022-08-12T17:06:44.074Z,2.97
2022-08-12T17:11:49.091Z,3.22
2022-08-12T17:16:54.754Z,3.20
2022-08-12T17:22:02.048Z,2.88
2022-08-12T17:27:16.359Z,2.72
2022-08-12T17:32:25.633Z,2.72
2022-08-12T17:37:30.123Z,3.08
2022-08-12T17:42:35.659Z,2.70
2022-08-12T17:47:37.854Z,3.33
2022-08-12T17:52:40.295Z,3.10
2022-08-12T17:57:48.245Z,2.95
2022-08-12T18:02:58.123Z,2.78
2022-08-12T18:08:01.325Z,4.07
2022-08-12T18:13:03.994Z,3.90
2022-08-12T18:18:05.976Z,2.97
2022-08-12T18:23:23.752Z,3.13
2022-08-12T18:28:29.127Z,3.97
2022-08-12T18:33:41.562Z,3.10
2022-08-12T18:38:52.739Z,3.60
2022-08-12T18:44:09.219Z,4.60
2022-08-12T18:49:17.815Z,4.00
2022-08-12T18:54:26.790Z,3.88
2022-08-12T19:00:02.130Z,3.72
2022-08-12T19:04:53.828Z,4.57
2022-08-12T19:10:00.085Z,4.88
2022-08-12T19:15:08.340Z,3.17
2022-08-12T19:20:13.654Z,5.18
2022-08-12T19:25:24.005Z,3.42
2022-08-12T19:31:04.019Z,3.70
2022-08-12T19:36:25.243Z,3.30
2022-08-12T19:41:42.496Z,4.05
2022-08-12T19:46:53.020Z,3.47
2022-08-12T19:51:55.515Z,3.50
2022-08-12T19:56:58.517Z,2.83
2022-08-12T20:02:04.904Z,3.10
2022-08-12T20:07:23.002Z,3.15
2022-08-12T20:12:32.431Z,4.35
2022-08-12T20:17:36.504Z,3.03
2022-08-12T20:22:55.761Z,3.10
2022-08-12T20:28:04.763Z,3.13
2022-08-12T20:33:16.669Z,3.15
2022-08-12T20:38:27.497Z,2.90
2022-08-12T20:43:32.104Z,3.25
2022-08-12T20:48:35.315Z,3.40
2022-08-12T20:53:58.015Z,3.05
2022-08-12T20:59:02.484Z,2.78
2022-08-12T21:04:24.127Z,3.00
2022-08-12T21:09:31.949Z,3.03
2022-08-12T21:14:53.860Z,3.10
2022-08-12T21:20:06.322Z,2.95
2022-08-12T21:25:18.891Z,4.13
2022-08-12T21:30:21.717Z,3.42
2022-08-12T21:35:29.068Z,4.05
2022-08-12T21:40:52.075Z,3.88
2022-08-12T21:46:00.896Z,3.67
2022-08-12T21:56:34.044Z,2.90
2022-08-12T22:01:36.696Z,4.25
2022-08-12T22:06:53.743Z,4.20
2022-08-12T22:12:20.972Z,4.28
2022-08-12T22:17:49.378Z,3.90
2022-08-12T22:28:16.693Z,4.30
2022-08-12T22:33:20.887Z,3.35
2022-08-12T22:38:26.559Z,4.05
2022-08-12T22:44:00.925Z,4.15
2022-08-12T22:49:03.625Z,4.50
2022-08-12T22:54:10.091Z,5.68
2022-08-12T22:59:51.015Z,4.32
2022-08-12T23:04:52.658Z,4.57
2022-08-12T23:09:56.832Z,4.35
2022-08-12T23:14:58.414Z,4.82
2022-08-12T23:20:01.670Z,6.72
2022-08-12T23:25:03.707Z,5.53
2022-08-12T23:30:18.831Z,4.97
2022-08-12T23:35:22.702Z,5.53
2022-08-12T23:40:25.774Z,4.20
2022-08-12T23:45:32.047Z,4.57
2022-08-12T23:50:38.373Z,5.37
2022-08-12T23:55:41.172Z,5.93
